createdAt,value
2022-08-09T00:00:00.630Z,20.75
2022-08-09T00:00:46.153Z,20.74
2022-08-09T00:01:18.649Z,20.76
2022-08-09T00:01:54.979Z,20.78
2022-08-09T00:02:30.760Z,20.78
2022-08-09T00:03:03.174Z,20.78
2022-08-09T00:04:00.462Z,20.76
2022-08-09T00:04:40.992Z,20.76
2022-08-09T00:06:18.015Z,20.72
2022-08-09T00:06:28.617Z,20.73
2022-08-09T00:07:07.617Z,20.76
2022-08-09T00:07:45.744Z,20.76
2022-08-09T00:08:32.123Z,20.77
2022-08-09T00:09:05.477Z,20.75
2022-08-09T00:09:40.315Z,20.76
2022-08-09T00:10:18.212Z,20.77
2022-08-09T00:10:53.807Z,20.77
2022-08-09T00:12:03.185Z,20.77
2022-08-09T00:12:25.344Z,20.74
2022-08-09T00:13:17.517Z,20.76
2022-08-09T00:13:51.233Z,20.73
2022-08-09T00:14:36.278Z,20.75
2022-08-09T00:15:14.782Z,20.75
2022-08-09T00:15:58.985Z,20.76
2022-08-09T00:16:36.743Z,20.75
2022-08-09T00:18:04.255Z,20.75
2022-08-09T00:18:11.860Z,20.72
2022-08-09T00:18:49.427Z,20.73
2022-08-09T00:19:21.744Z,20.73
2022-08-09T00:19:55.269Z,20.74
2022-08-09T00:20:32.578Z,20.75
2022-08-09T00:21:08.595Z,20.74
2022-08-09T00:21:55.502Z,20.75
2022-08-09T00:22:35.290Z,20.72
2022-08-09T00:23:55.554Z,20.70
2022-08-09T00:24:00.683Z,20.68
2022-08-09T00:24:35.704Z,20.72
2022-08-09T00:25:12.816Z,20.72
2022-08-09T00:25:45.057Z,20.72
2022-08-09T00:26:32.084Z,20.70
2022-08-09T00:27:05.584Z,20.69
2022-08-09T00:27:43.023Z,20.70
2022-08-09T00:28:18.572Z,20.70
2022-08-09T00:28:52.460Z,20.71
2022-08-09T00:29:39.859Z,20.71
2022-08-09T00:30:25.061Z,20.68
2022-08-09T00:30:58.509Z,20.69
2022-08-09T00:31:59.758Z,20.70
2022-08-09T00:32:27.138Z,20.68
2022-08-09T00:32:59.610Z,20.68
2022-08-09T00:33:49.064Z,20.69
2022-08-09T00:34:26.098Z,20.66
2022-08-09T00:34:58.819Z,20.64
2022-08-09T00:35:43.088Z,20.67
2022-08-09T00:36:18.617Z,20.66
2022-08-09T00:36:52.053Z,20.67
2022-08-09T00:37:24.383Z,20.68
2022-08-09T00:38:01.759Z,20.69
2022-08-09T00:38:36.715Z,20.67
2022-08-09T00:39:16.854Z,20.69
2022-08-09T00:40:12.804Z,20.66
2022-08-09T00:40:52.897Z,20.65
2022-08-09T00:44:13.136Z,20.63
2022-08-09T00:44:14.738Z,20.67
2022-08-09T00:44:16.909Z,20.65
2022-08-09T00:44:20.682Z,20.64
2022-08-09T00:45:03.789Z,20.62
2022-08-09T00:45:53.955Z,20.63
2022-08-09T00:46:45.420Z,20.63
2022-08-09T00:47:21.343Z,20.61
2022-08-09T00:47:57.097Z,20.63
2022-08-09T00:48:29.349Z,20.65
2022-08-09T00:49:07.921Z,20.67
2022-08-09T00:49:40.131Z,20.69
2022-08-09T00:50:14.541Z,20.70
2022-08-09T00:50:52.391Z,20.70
2022-08-09T00:51:24.950Z,20.69
2022-08-09T00:52:05.272Z,20.72
2022-08-09T00:52:40.846Z,20.72
2022-08-09T00:53:17.324Z,20.73
2022-08-09T00:53:56.419Z,20.70
2022-08-09T00:54:36.022Z,20.73
2022-08-09T00:55:16.699Z,20.71
2022-08-09T00:56:09.861Z,20.69
2022-08-09T00:56:42.347Z,20.69
2022-08-09T00:57:33.806Z,20.70
2022-08-09T00:58:14.788Z,20.65
2022-08-09T00:58:54.406Z,20.63
2022-08-09T00:59:40.501Z,20.65
2022-08-09T01:00:21.347Z,20.62
2022-08-09T01:00:59.042Z,20.60
2022-08-09T01:01:44.705Z,20.60
2022-08-09T01:02:23.942Z,20.59
2022-08-09T01:03:07.390Z,20.57
2022-08-09T01:03:54.861Z,20.55
2022-08-09T01:04:34.385Z,20.54
2022-08-09T01:05:22.170Z,20.55
2022-08-09T01:06:17.486Z,20.52
2022-08-09T01:06:58.270Z,20.49
2022-08-09T01:07:59.676Z,20.49
2022-08-09T01:08:48.741Z,20.48
2022-08-09T01:09:36.667Z,20.48
2022-08-09T01:10:20.396Z,20.50
2022-08-09T01:11:03.813Z,20.54
2022-08-09T01:11:53.339Z,20.50
2022-08-09T01:12:35.460Z,20.50
2022-08-09T01:13:16.914Z,20.49
2022-08-09T01:14:03.117Z,20.49
2022-08-09T01:14:45.349Z,20.48
2022-08-09T01:15:30.333Z,20.48
2022-08-09T01:16:06.178Z,20.49
2022-08-09T01:16:47.203Z,20.50
2022-08-09T01:17:30.394Z,20.49
2022-08-09T01:18:10.333Z,20.48
2022-08-09T01:19:02.606Z,20.45
2022-08-09T01:19:57.236Z,20.43
2022-08-09T01:20:41.395Z,20.40
2022-08-09T01:21:44.701Z,20.40
2022-08-09T01:22:45.351Z,20.35
2022-08-09T01:24:00.638Z,20.35
2022-08-09T01:24:50.399Z,20.34
2022-08-09T01:25:48.978Z,20.34
2022-08-09T01:26:53.616Z,20.31
2022-08-09T01:27:29.080Z,20.33
2022-08-09T01:28:03.562Z,20.35
2022-08-09T01:28:43.742Z,20.37
2022-08-09T01:29:19.546Z,20.39
2022-08-09T01:30:02.671Z,20.38
2022-08-09T01:30:52.228Z,20.39
2022-08-09T01:32:30.335Z,20.38
2022-08-09T01:32:30.802Z,20.36
2022-08-09T01:33:10.070Z,20.39
2022-08-09T01:33:46.278Z,20.40
2022-08-09T01:34:21.726Z,20.41
2022-08-09T01:34:58.047Z,20.43
2022-08-09T01:35:38.457Z,20.45
2022-08-09T01:36:16.755Z,20.44
2022-08-09T01:36:50.433Z,20.45
2022-08-09T01:38:05.596Z,20.46
2022-08-09T01:38:23.516Z,20.42
2022-08-09T01:38:58.362Z,20.41
2022-08-09T01:39:35.915Z,20.44
2022-08-09T01:40:23.080Z,20.44
2022-08-09T01:41:06.638Z,20.42
2022-08-09T01:41:53.395Z,20.43
2022-08-09T01:42:28.402Z,20.42
2022-08-09T01:43:03.439Z,20.44
2022-08-09T01:43:51.279Z,20.44
2022-08-09T01:44:25.530Z,20.44
2022-08-09T01:44:59.195Z,20.48
2022-08-09T01:45:35.552Z,20.49
2022-08-09T01:46:25.192Z,20.48
2022-08-09T01:47:03.695Z,20.49
2022-08-09T01:47:44.525Z,20.50
2022-08-09T01:48:29.837Z,20.49
2022-08-09T01:49:12.685Z,20.47
2022-08-09T01:49:54.496Z,20.47
2022-08-09T01:50:36.760Z,20.47
2022-08-09T01:51:13.459Z,20.48
2022-08-09T01:51:58.168Z,20.47
2022-08-09T01:52:44.325Z,20.47
2022-08-09T01:53:21.610Z,20.48
2022-08-09T01:53:57.909Z,20.50
2022-08-09T01:54:35.091Z,20.51
2022-08-09T01:55:09.859Z,20.51
2022-08-09T01:55:42.843Z,20.52
2022-08-09T01:56:19.619Z,20.55
2022-08-09T01:56:57.761Z,20.54
2022-08-09T01:57:45.747Z,20.52
2022-08-09T01:58:18.725Z,20.53
2022-08-09T01:58:58.811Z,20.53
2022-08-09T01:59:40.821Z,20.55
2022-08-09T02:00:35.446Z,20.52
2022-08-09T02:01:18.483Z,20.51
2022-08-09T02:01:59.773Z,20.51
2022-08-09T02:02:41.560Z,20.51
2022-08-09T02:03:16.775Z,20.50
2022-08-09T02:03:50.473Z,20.51
2022-08-09T02:04:27.534Z,20.52
2022-08-09T02:05:05.676Z,20.52
2022-08-09T02:06:03.203Z,20.49
2022-08-09T02:06:58.914Z,20.45
2022-08-09T02:08:35.796Z,20.37
2022-08-09T02:08:40.803Z,20.42
2022-08-09T02:09:15.112Z,20.37
2022-08-09T02:09:59.378Z,20.39
2022-08-09T02:10:36.202Z,20.36
2022-08-09T02:11:16.876Z,20.36
2022-08-09T02:11:52.650Z,20.36
2022-08-09T02:12:29.153Z,20.37
2022-08-09T02:13:06.191Z,20.36
2022-08-09T02:13:41.282Z,20.36
2022-08-09T02:14:26.406Z,20.35
2022-08-09T02:15:02.132Z,20.33
2022-08-09T02:15:48.760Z,20.33
2022-08-09T02:16:33.885Z,20.30
2022-08-09T02:17:59.480Z,20.27
2022-08-09T02:18:15.851Z,20.26
2022-08-09T02:18:48.784Z,20.29
2022-08-09T02:19:22.620Z,20.31
2022-08-09T02:19:57.532Z,20.35
2022-08-09T02:20:39.864Z,20.34
2022-08-09T02:21:22.198Z,20.33
2022-08-09T02:21:58.846Z,20.33
2022-08-09T02:22:38.577Z,20.34
2022-08-09T02:23:20.757Z,20.36
2022-08-09T02:23:57.807Z,20.33
2022-08-09T02:24:35.540Z,20.35
2022-08-09T02:25:17.448Z,20.34
2022-08-09T02:25:57.024Z,20.31
2022-08-09T02:26:34.510Z,20.31
2022-08-09T02:27:12.523Z,20.31
2022-08-09T02:28:03.910Z,20.29
2022-08-09T02:28:43.511Z,20.27
2022-08-09T02:29:23.697Z,20.27
2022-08-09T02:29:58.560Z,20.27
2022-08-09T02:30:42.403Z,20.28
2022-08-09T02:31:21.356Z,20.27
2022-08-09T02:32:01.314Z,20.26
2022-08-09T02:32:40.744Z,20.26
2022-08-09T02:33:18.660Z,20.25
2022-08-09T02:34:07.529Z,20.25
2022-08-09T02:34:55.910Z,20.23
2022-08-09T02:36:03.001Z,20.23
2022-08-09T02:36:34.653Z,20.22
2022-08-09T02:37:14.339Z,20.24
2022-08-09T02:37:50.089Z,20.25
2022-08-09T02:38:30.879Z,20.28
2022-08-09T02:39:06.596Z,20.26
2022-08-09T02:39:45.037Z,20.27
2022-08-09T02:40:27.071Z,20.27
2022-08-09T02:41:08.718Z,20.24
2022-08-09T02:41:47.249Z,20.24
2022-08-09T02:42:25.739Z,20.24
2022-08-09T02:43:03.797Z,20.22
2022-08-09T02:43:54.480Z,20.18
2022-08-09T02:44:33.328Z,20.14
2022-08-09T02:45:15.695Z,20.13
2022-08-09T02:45:52.515Z,20.12
2022-08-09T02:46:27.469Z,20.12
2022-08-09T02:47:06.390Z,20.12
2022-08-09T02:47:57.744Z,20.09
2022-08-09T02:48:37.687Z,20.05
2022-08-09T02:49:15.996Z,20.07
2022-08-09T02:50:01.303Z,20.06
2022-08-09T02:50:42.474Z,20.03
2022-08-09T02:51:20.617Z,20.03
2022-08-09T02:51:57.608Z,20.04
2022-08-09T02:52:40.198Z,20.04
2022-08-09T02:53:26.110Z,20.02
2022-08-09T02:54:01.174Z,20.02
2022-08-09T02:54:54.650Z,20.02
2022-08-09T02:55:39.424Z,19.97
2022-08-09T02:56:28.061Z,19.94
2022-08-09T02:57:13.949Z,19.96
2022-08-09T02:58:35.913Z,19.93
2022-08-09T02:58:57.342Z,19.89
2022-08-09T02:59:36.399Z,19.93
2022-08-09T03:00:25.716Z,19.93
2022-08-09T03:01:00.264Z,19.92
2022-08-09T03:01:42.618Z,19.94
2022-08-09T03:02:33.747Z,19.91
2022-08-09T03:03:08.916Z,19.92
2022-08-09T03:04:17.288Z,19.91
2022-08-09T03:04:41.616Z,19.86
2022-08-09T03:05:17.431Z,19.88
2022-08-09T03:05:52.073Z,19.90
2022-08-09T03:06:32.062Z,19.89
2022-08-09T03:07:12.475Z,19.89
2022-08-09T03:07:54.931Z,19.88
2022-08-09T03:08:31.277Z,19.89
2022-08-09T03:09:05.388Z,19.91
2022-08-09T03:09:42.816Z,19.92
2022-08-09T03:10:19.236Z,19.93
2022-08-09T03:10:52.920Z,19.94
2022-08-09T03:12:06.597Z,19.95
2022-08-09T03:12:22.400Z,19.93
2022-08-09T03:12:55.602Z,19.96
2022-08-09T03:13:43.406Z,20.00
2022-08-09T03:14:29.372Z,19.96
2022-08-09T03:15:05.788Z,19.99
2022-08-09T03:16:04.256Z,20.01
2022-08-09T03:16:41.408Z,19.98
2022-08-09T03:17:20.392Z,20.00
2022-08-09T03:17:59.966Z,20.01
2022-08-09T03:18:35.594Z,20.06
2022-08-09T03:19:16.782Z,20.06
2022-08-09T03:20:11.611Z,20.05
2022-08-09T03:20:44.480Z,20.05
2022-08-09T03:21:19.988Z,20.08
2022-08-09T03:22:03.257Z,20.09
2022-08-09T03:22:41.707Z,20.09
2022-08-09T03:23:24.328Z,20.09
2022-08-09T03:24:04.746Z,20.11
2022-08-09T03:24:52.341Z,20.11
2022-08-09T03:25:57.846Z,20.09
2022-08-09T03:26:21.191Z,20.09
2022-08-09T03:27:07.407Z,20.10
2022-08-09T03:27:44.613Z,20.11
2022-08-09T03:28:18.302Z,20.14
2022-08-09T03:28:59.374Z,20.17
2022-08-09T03:29:35.696Z,20.17
2022-08-09T03:30:30.015Z,20.13
2022-08-09T03:31:10.479Z,20.16
2022-08-09T03:32:00.273Z,20.16
2022-08-09T03:32:38.571Z,20.17
2022-08-09T03:33:17.813Z,20.16
2022-08-09T03:33:54.546Z,20.17
2022-08-09T03:34:31.355Z,20.17
2022-08-09T03:35:24.475Z,20.18
2022-08-09T03:36:13.381Z,20.13
2022-08-09T03:36:59.616Z,20.09
2022-08-09T03:37:55.393Z,20.09
2022-08-09T03:38:28.727Z,20.07
2022-08-09T03:39:03.975Z,20.10
2022-08-09T03:39:37.647Z,20.11
2022-08-09T03:40:14.559Z,20.13
2022-08-09T03:40:50.550Z,20.13
2022-08-09T03:41:29.792Z,20.14
2022-08-09T03:42:14.109Z,20.11
2022-08-09T03:42:51.702Z,20.13
2022-08-09T03:43:31.727Z,20.14
2022-08-09T03:44:08.946Z,20.16
2022-08-09T03:44:43.938Z,20.15
2022-08-09T03:45:16.736Z,20.16
2022-08-09T03:46:20.038Z,20.10
2022-08-09T03:46:59.431Z,20.09
2022-08-09T03:47:36.669Z,20.13
2022-08-09T03:48:18.965Z,20.15
2022-08-09T03:49:03.742Z,20.14
2022-08-09T03:49:58.693Z,20.15
2022-08-09T03:50:33.392Z,20.13
2022-08-09T03:51:55.185Z,20.16
2022-08-09T03:52:04.392Z,20.13
2022-08-09T03:52:38.750Z,20.13
2022-08-09T03:53:11.506Z,20.15
2022-08-09T03:53:47.535Z,20.17
2022-08-09T03:54:29.389Z,20.18
2022-08-09T03:55:09.799Z,20.17
2022-08-09T03:55:42.508Z,20.16
2022-08-09T03:56:14.871Z,20.18
2022-08-09T03:56:50.001Z,20.20
2022-08-09T03:57:24.582Z,20.19
2022-08-09T03:58:06.576Z,20.21
2022-08-09T03:58:47.186Z,20.18
2022-08-09T03:59:52.906Z,20.20
2022-08-09T04:00:20.707Z,20.17
2022-08-09T04:00:59.005Z,20.21
2022-08-09T04:01:32.094Z,20.23
2022-08-09T04:02:05.593Z,20.25
2022-08-09T04:02:44.988Z,20.25
2022-08-09T04:03:24.610Z,20.25
2022-08-09T04:04:14.528Z,20.15
2022-08-09T04:04:50.975Z,20.14
2022-08-09T04:05:27.414Z,20.17
2022-08-09T04:06:00.693Z,20.18
2022-08-09T04:06:39.748Z,20.19
2022-08-09T04:07:16.876Z,20.17
2022-08-09T04:07:56.686Z,20.20
2022-08-09T04:08:29.925Z,20.19
2022-08-09T04:09:03.790Z,20.21
2022-08-09T04:09:58.655Z,20.17
2022-08-09T04:10:31.457Z,20.21
2022-08-09T04:11:03.725Z,20.23
2022-08-09T04:12:00.904Z,20.24
2022-08-09T04:12:47.282Z,20.20
2022-08-09T04:13:44.783Z,20.22
2022-08-09T04:14:53.246Z,20.21
2022-08-09T04:15:17.143Z,20.23
2022-08-09T04:16:19.290Z,20.23
2022-08-09T04:16:57.367Z,20.23
2022-08-09T04:17:29.953Z,20.25
2022-08-09T04:18:04.399Z,20.28
2022-08-09T04:18:40.838Z,20.29
2022-08-09T04:19:30.046Z,20.29
2022-08-09T04:20:07.274Z,20.27
2022-08-09T04:20:42.308Z,20.30
2022-08-09T04:21:16.699Z,20.31
2022-08-09T04:21:49.713Z,20.35
2022-08-09T04:22:24.477Z,20.34
2022-08-09T04:23:00.242Z,20.37
2022-08-09T04:23:36.723Z,20.38
2022-08-09T04:24:09.066Z,20.40
2022-08-09T04:24:43.893Z,20.42
2022-08-09T04:25:19.122Z,20.44
2022-08-09T04:25:52.096Z,20.46
2022-08-09T04:26:25.321Z,20.49
2022-08-09T04:27:12.963Z,20.50
2022-08-09T04:27:49.021Z,20.52
2022-08-09T04:28:34.189Z,20.53
2022-08-09T04:29:15.426Z,20.52
2022-08-09T04:29:50.165Z,20.52
2022-08-09T04:30:28.866Z,20.52
2022-08-09T04:31:01.022Z,20.52
2022-08-09T04:31:47.177Z,20.50
2022-08-09T04:32:31.331Z,20.50
2022-08-09T04:33:05.950Z,20.49
2022-08-09T04:33:52.628Z,20.50
2022-08-09T04:34:30.796Z,20.48
2022-08-09T04:35:04.946Z,20.48
2022-08-09T04:35:43.480Z,20.49
2022-08-09T04:36:15.875Z,20.52
2022-08-09T04:36:54.309Z,20.54
2022-08-09T04:37:46.074Z,20.55
2022-08-09T04:38:18.638Z,20.52
2022-08-09T04:38:53.879Z,20.53
2022-08-09T04:39:26.084Z,20.55
2022-08-09T04:40:04.716Z,20.54
2022-08-09T04:40:54.195Z,20.56
2022-08-09T04:41:32.481Z,20.54
2022-08-09T04:42:05.986Z,20.54
2022-08-09T04:42:44.237Z,20.57
2022-08-09T04:43:16.860Z,20.58
2022-08-09T04:43:53.650Z,20.61
2022-08-09T04:44:41.042Z,20.58
2022-08-09T04:45:21.629Z,20.60
2022-08-09T04:45:58.461Z,20.64
2022-08-09T04:46:37.600Z,20.66
2022-08-09T04:47:44.972Z,20.64
2022-08-09T04:48:20.034Z,20.66
2022-08-09T04:48:57.608Z,20.69
2022-08-09T04:49:52.662Z,20.69
2022-08-09T04:50:31.980Z,20.68
2022-08-09T04:51:07.424Z,20.68
2022-08-09T04:51:42.234Z,20.69
2022-08-09T04:52:18.539Z,20.70
2022-08-09T04:52:57.656Z,20.71
2022-08-09T04:53:33.182Z,20.75
2022-08-09T04:54:06.799Z,20.76
2022-08-09T04:54:38.962Z,20.78
2022-08-09T04:55:14.811Z,20.81
2022-08-09T04:55:59.028Z,20.83
2022-08-09T04:56:34.569Z,20.83
2022-08-09T04:57:09.401Z,20.85
2022-08-09T04:57:58.785Z,20.88
2022-08-09T04:58:34.579Z,20.88
2022-08-09T04:59:13.196Z,20.90
2022-08-09T04:59:48.226Z,20.91
2022-08-09T05:00:22.634Z,20.94
2022-08-09T05:01:01.529Z,20.96
2022-08-09T05:01:33.687Z,20.98
2022-08-09T05:02:06.435Z,21.00
2022-08-09T05:02:41.897Z,21.02
2022-08-09T05:03:40.256Z,21.05
2022-08-09T05:04:06.558Z,21.05
2022-08-09T05:04:42.657Z,21.07
2022-08-09T05:05:14.828Z,21.09
2022-08-09T05:06:07.532Z,21.08
2022-08-09T05:06:39.891Z,21.10
2022-08-09T05:07:19.175Z,21.11
2022-08-09T05:07:54.792Z,21.14
2022-08-09T05:08:28.247Z,21.17
2022-08-09T05:09:01.535Z,21.24
2022-08-09T05:09:42.169Z,21.22
2022-08-09T05:10:17.860Z,21.23
2022-08-09T05:10:49.970Z,21.25
2022-08-09T05:11:26.547Z,21.28
2022-08-09T05:12:05.058Z,21.29
2022-08-09T05:12:37.838Z,21.32
2022-08-09T05:13:14.387Z,21.34
2022-08-09T05:13:47.355Z,21.34
2022-08-09T05:14:20.917Z,21.36
2022-08-09T05:15:03.530Z,21.36
2022-08-09T05:15:48.024Z,21.35
2022-08-09T05:16:32.020Z,21.35
2022-08-09T05:17:04.443Z,21.37
2022-08-09T05:18:39.450Z,21.36
2022-08-09T05:18:58.080Z,21.34
2022-08-09T05:19:44.964Z,21.29
2022-08-09T05:20:18.597Z,21.29
2022-08-09T05:20:51.354Z,21.32
2022-08-09T05:21:30.226Z,21.36
2022-08-09T05:22:35.066Z,21.37
2022-08-09T05:23:54.238Z,21.39
2022-08-09T05:24:01.910Z,21.40
2022-08-09T05:24:37.071Z,21.43
2022-08-09T05:25:10.130Z,21.46
2022-08-09T05:25:42.338Z,21.43
2022-08-09T05:26:26.533Z,21.52
2022-08-09T05:27:09.861Z,21.51
2022-08-09T05:27:47.929Z,21.55
2022-08-09T05:28:23.566Z,21.56
2022-08-09T05:28:56.320Z,21.58
2022-08-09T05:29:31.570Z,21.59
2022-08-09T05:30:06.915Z,21.59
2022-08-09T05:30:39.177Z,21.62
2022-08-09T05:31:37.033Z,21.62
2022-08-09T05:32:20.112Z,21.63
2022-08-09T05:32:55.403Z,21.64
2022-08-09T05:33:32.811Z,21.68
2022-08-09T05:34:08.098Z,21.69
2022-08-09T05:34:48.946Z,21.69
2022-08-09T05:35:22.135Z,21.70
2022-08-09T05:35:57.334Z,21.71
2022-08-09T05:36:30.289Z,21.69
2022-08-09T05:37:11.271Z,21.69
2022-08-09T05:37:47.991Z,21.69
2022-08-09T05:38:22.458Z,21.70
2022-08-09T05:38:54.898Z,21.72
2022-08-09T05:39:36.545Z,21.74
2022-08-09T05:40:16.256Z,21.73
2022-08-09T05:40:53.170Z,21.77
2022-08-09T05:41:25.416Z,21.80
2022-08-09T05:42:01.636Z,21.83
2022-08-09T05:42:39.257Z,21.83
2022-08-09T05:43:12.029Z,21.86
2022-08-09T05:43:45.051Z,21.88
2022-08-09T05:44:32.240Z,21.91
2022-08-09T05:45:06.458Z,21.91
2022-08-09T05:45:52.824Z,21.92
2022-08-09T05:46:28.787Z,21.84
2022-08-09T05:47:05.425Z,21.86
2022-08-09T05:47:50.871Z,21.89
2022-08-09T05:48:32.921Z,21.89
2022-08-09T05:49:07.421Z,21.86
2022-08-09T05:50:25.686Z,21.88
2022-08-09T05:51:12.095Z,21.92
2022-08-09T05:51:46.965Z,21.94
2022-08-09T05:52:19.385Z,21.96
2022-08-09T05:52:54.048Z,21.99
2022-08-09T05:53:33.235Z,22.03
2022-08-09T05:54:06.369Z,22.02
2022-08-09T05:54:39.166Z,22.04
2022-08-09T05:55:20.820Z,22.04
2022-08-09T05:55:53.990Z,22.05
2022-08-09T05:56:27.459Z,22.07
2022-08-09T05:57:02.220Z,22.10
2022-08-09T05:57:50.917Z,22.10
2022-08-09T05:58:32.239Z,22.09
2022-08-09T05:59:04.459Z,22.11
2022-08-09T05:59:39.304Z,22.14
2022-08-09T06:00:14.900Z,22.16
2022-08-09T06:00:50.242Z,22.20
2022-08-09T06:01:23.191Z,22.21
2022-08-09T06:01:58.837Z,22.24
2022-08-09T06:02:34.124Z,22.25
2022-08-09T06:03:10.743Z,22.28
2022-08-09T06:03:54.480Z,22.30
2022-08-09T06:04:34.772Z,22.31
2022-08-09T06:05:08.952Z,22.35
2022-08-09T06:05:57.272Z,22.38
2022-08-09T06:06:36.540Z,22.39
2022-08-09T06:07:21.582Z,22.43
2022-08-09T06:08:05.439Z,22.47
2022-08-09T06:08:43.050Z,22.52
2022-08-09T06:09:55.139Z,22.53
2022-08-09T06:10:19.515Z,22.55
2022-08-09T06:10:52.012Z,22.57
2022-08-09T06:11:40.659Z,22.59
2022-08-09T06:12:18.966Z,22.57
2022-08-09T06:13:02.830Z,22.60
2022-08-09T06:13:40.290Z,22.62
2022-08-09T06:14:13.555Z,22.68
2022-08-09T06:14:45.708Z,22.72
2022-08-09T06:15:20.479Z,22.77
2022-08-09T06:15:55.977Z,22.79
2022-08-09T06:16:29.652Z,22.81
2022-08-09T06:17:09.422Z,22.83
2022-08-09T06:17:41.994Z,22.78
2022-08-09T06:18:16.843Z,22.82
2022-08-09T06:18:51.627Z,22.82
2022-08-09T06:19:24.379Z,22.85
2022-08-09T06:20:02.362Z,22.87
2022-08-09T06:20:34.742Z,22.88
2022-08-09T06:21:10.667Z,22.90
2022-08-09T06:21:51.426Z,22.91
2022-08-09T06:22:30.538Z,22.91
2022-08-09T06:23:05.497Z,22.92
2022-08-09T06:23:57.223Z,22.93
2022-08-09T06:24:32.548Z,22.91
2022-08-09T06:25:08.638Z,22.92
2022-08-09T06:25:44.514Z,22.94
2022-08-09T06:26:28.576Z,22.96
2022-08-09T06:27:01.057Z,22.95
2022-08-09T06:27:42.370Z,22.95
2022-08-09T06:28:18.120Z,22.97
2022-08-09T06:29:01.122Z,23.00
2022-08-09T06:29:58.566Z,22.98
2022-08-09T06:30:31.879Z,22.99
2022-08-09T06:31:04.283Z,23.02
2022-08-09T06:31:40.156Z,23.04
2022-08-09T06:32:59.790Z,23.02
2022-08-09T06:33:40.423Z,23.01
2022-08-09T06:34:16.312Z,23.00
2022-08-09T06:34:53.035Z,23.02
2022-08-09T06:35:56.189Z,23.06
2022-08-09T06:36:20.349Z,23.05
2022-08-09T06:37:00.138Z,23.07
2022-08-09T06:37:32.461Z,23.09
2022-08-09T06:38:32.269Z,23.09
2022-08-09T06:39:11.898Z,23.10
2022-08-09T06:39:57.819Z,23.12
2022-08-09T06:40:33.404Z,23.13
2022-08-09T06:41:18.274Z,23.15
2022-08-09T06:42:07.737Z,23.16
2022-08-09T06:42:45.178Z,23.16
2022-08-09T06:43:19.038Z,23.18
2022-08-09T06:43:53.053Z,23.23
2022-08-09T06:44:28.280Z,23.26
2022-08-09T06:46:04.393Z,23.28
2022-08-09T06:46:07.312Z,23.29
2022-08-09T06:46:43.671Z,23.25
2022-08-09T06:47:20.341Z,23.27
2022-08-09T06:48:00.761Z,23.33
2022-08-09T06:48:42.672Z,23.33
2022-08-09T06:49:22.600Z,23.36
2022-08-09T06:50:14.606Z,23.36
2022-08-09T06:50:51.355Z,23.36
2022-08-09T06:51:26.182Z,23.40
2022-08-09T06:52:00.279Z,23.42
2022-08-09T06:52:35.241Z,23.43
2022-08-09T06:53:07.487Z,23.45
2022-08-09T06:53:42.590Z,23.45
2022-08-09T06:54:16.006Z,23.46
2022-08-09T06:54:54.147Z,23.46
2022-08-09T06:55:32.090Z,23.45
2022-08-09T06:56:05.406Z,23.45
2022-08-09T06:56:46.274Z,23.46
2022-08-09T06:57:18.724Z,23.48
2022-08-09T06:58:03.847Z,23.49
2022-08-09T07:00:47.763Z,23.50
2022-08-09T07:00:49.543Z,23.53
2022-08-09T07:00:56.901Z,23.51
2022-08-09T07:01:19.201Z,23.55
2022-08-09T07:02:03.540Z,23.59
2022-08-09T07:02:37.116Z,23.63
2022-08-09T07:03:13.693Z,23.65
2022-08-09T07:03:52.475Z,23.70
2022-08-09T07:04:29.468Z,23.72
2022-08-09T07:05:02.363Z,23.75
2022-08-09T07:06:02.269Z,23.78
2022-08-09T07:06:29.744Z,23.79
2022-08-09T07:07:05.124Z,23.82
2022-08-09T07:07:59.995Z,23.85
2022-08-09T07:08:32.588Z,23.86
2022-08-09T07:09:04.862Z,23.89
2022-08-09T07:09:55.597Z,23.92
2022-08-09T07:10:32.537Z,23.89
2022-08-09T07:11:07.149Z,23.89
2022-08-09T07:11:45.555Z,23.90
2022-08-09T07:12:38.693Z,23.88
2022-08-09T07:13:27.458Z,23.86
2022-08-09T07:14:05.359Z,23.86
2022-08-09T07:14:41.066Z,23.87
2022-08-09T07:15:53.944Z,23.87
2022-08-09T07:16:43.461Z,23.85
2022-08-09T07:17:01.091Z,23.86
2022-08-09T07:17:39.579Z,23.88
2022-08-09T07:18:24.853Z,23.89
2022-08-09T07:19:03.693Z,23.92
2022-08-09T07:19:36.147Z,23.94
2022-08-09T07:20:10.498Z,23.98
2022-08-09T07:20:47.831Z,24.00
2022-08-09T07:21:20.413Z,24.02
2022-08-09T07:21:55.491Z,24.03
2022-08-09T07:22:35.411Z,24.03
2022-08-09T07:23:19.032Z,24.01
2022-08-09T07:23:57.677Z,24.01
2022-08-09T07:24:39.770Z,24.01
2022-08-09T07:25:15.670Z,24.04
2022-08-09T07:25:52.263Z,24.06
2022-08-09T07:26:24.930Z,24.08
2022-08-09T07:26:59.724Z,24.09
2022-08-09T07:27:34.422Z,24.13
2022-08-09T07:28:19.434Z,24.16
2022-08-09T07:29:08.243Z,24.20
2022-08-09T07:29:46.532Z,24.21
2022-08-09T07:30:18.897Z,24.24
2022-08-09T07:30:56.930Z,24.24
2022-08-09T07:31:29.091Z,24.27
2022-08-09T07:32:12.934Z,24.29
2022-08-09T07:32:46.094Z,24.31
2022-08-09T07:33:18.398Z,24.32
2022-08-09T07:33:55.825Z,24.31
2022-08-09T07:34:31.057Z,24.30
2022-08-09T07:35:11.552Z,24.30
2022-08-09T07:35:54.011Z,24.31
2022-08-09T07:36:26.958Z,24.34
2022-08-09T07:37:02.823Z,24.38
2022-08-09T07:37:42.891Z,24.40
2022-08-09T07:38:16.457Z,24.43
2022-08-09T07:38:58.414Z,24.48
2022-08-09T07:39:40.311Z,24.53
2022-08-09T07:40:20.645Z,24.56
2022-08-09T07:41:11.803Z,24.57
2022-08-09T07:41:47.874Z,24.60
2022-08-09T07:42:20.754Z,24.64
2022-08-09T07:43:16.503Z,24.66
2022-08-09T07:43:55.720Z,24.68
2022-08-09T07:44:50.946Z,24.69
2022-08-09T07:45:37.731Z,24.66
2022-08-09T07:46:17.167Z,24.64
2022-08-09T07:46:51.760Z,24.66
2022-08-09T07:47:24.402Z,24.70
2022-08-09T07:48:04.497Z,24.74
2022-08-09T07:48:37.118Z,24.76
2022-08-09T07:49:15.453Z,24.76
2022-08-09T07:50:04.264Z,24.77
2022-08-09T07:50:40.910Z,24.75
2022-08-09T07:52:04.834Z,24.76
2022-08-09T07:52:19.996Z,24.78
2022-08-09T07:52:53.274Z,24.80
2022-08-09T07:53:45.175Z,24.82
2022-08-09T07:54:27.933Z,24.82
2022-08-09T07:55:02.306Z,24.84
2022-08-09T07:56:03.588Z,24.87
2022-08-09T07:56:45.149Z,24.89
2022-08-09T07:57:33.909Z,24.90
2022-08-09T07:58:13.187Z,24.89
2022-08-09T07:58:48.935Z,24.91
2022-08-09T07:59:33.963Z,24.92
2022-08-09T08:00:20.803Z,24.93
2022-08-09T08:01:11.134Z,24.93
2022-08-09T08:01:53.074Z,24.93
2022-08-09T08:02:30.538Z,24.92
2022-08-09T08:03:08.713Z,24.92
2022-08-09T08:03:43.667Z,24.91
2022-08-09T08:04:19.328Z,24.92
2022-08-09T08:05:03.096Z,24.93
2022-08-09T08:05:57.868Z,24.90
2022-08-09T08:06:33.814Z,24.90
2022-08-09T08:07:15.155Z,24.89
2022-08-09T08:09:00.268Z,24.84
2022-08-09T08:09:03.613Z,24.83
2022-08-09T08:09:51.815Z,24.83
2022-08-09T08:10:27.252Z,24.82
2022-08-09T08:11:15.328Z,24.82
2022-08-09T08:12:11.437Z,24.80
2022-08-09T08:12:50.806Z,24.79
2022-08-09T08:13:23.082Z,24.80
2022-08-09T08:13:56.635Z,24.82
2022-08-09T08:14:32.325Z,24.83
2022-08-09T08:15:05.506Z,24.87
2022-08-09T08:15:42.161Z,24.87
2022-08-09T08:16:29.489Z,24.88
2022-08-09T08:17:08.715Z,24.86
2022-08-09T08:17:53.613Z,24.87
2022-08-09T08:18:30.213Z,24.85
2022-08-09T08:19:04.494Z,24.87
2022-08-09T08:19:37.181Z,24.86
2022-08-09T08:20:15.301Z,24.88
2022-08-09T08:20:47.718Z,24.90
2022-08-09T08:21:21.313Z,24.90
2022-08-09T08:21:57.847Z,24.91
2022-08-09T08:22:31.211Z,24.93
2022-08-09T08:23:16.960Z,24.95
2022-08-09T08:23:56.014Z,24.97
2022-08-09T08:24:34.349Z,25.00
2022-08-09T08:25:13.544Z,25.02
2022-08-09T08:25:50.288Z,25.04
2022-08-09T08:26:26.528Z,25.01
2022-08-09T08:26:59.105Z,25.04
2022-08-09T08:28:01.602Z,25.04
2022-08-09T08:28:35.017Z,25.06
2022-08-09T08:29:07.567Z,25.06
2022-08-09T08:29:48.401Z,25.07
2022-08-09T08:30:21.015Z,25.05
2022-08-09T08:30:55.978Z,25.06
2022-08-09T08:32:02.766Z,25.09
2022-08-09T08:32:29.189Z,25.08
2022-08-09T08:33:04.713Z,25.09
2022-08-09T08:33:49.527Z,25.09
2022-08-09T08:34:25.297Z,25.09
2022-08-09T08:35:00.514Z,25.11
2022-08-09T08:35:37.092Z,25.13
2022-08-09T08:36:28.860Z,25.13
2022-08-09T08:37:05.203Z,25.15
2022-08-09T08:37:41.549Z,25.17
2022-08-09T08:38:32.863Z,25.15
2022-08-09T08:39:05.645Z,25.18
2022-08-09T08:39:43.661Z,25.19
2022-08-09T08:40:19.486Z,25.20
2022-08-09T08:40:53.217Z,25.19